createdAt,value
2022-08-03T00:00:47.312Z,454.9
2022-08-03T00:02:30.994Z,457.6
2022-08-03T00:04:14.712Z,458.2
2022-08-03T00:05:58.407Z,459.4
2022-08-03T00:07:42.094Z,461.5
2022-08-03T00:09:25.810Z,461.7
2022-08-03T00:11:09.509Z,461.1
2022-08-03T00:12:53.215Z,460.9
2022-08-03T00:14:36.916Z,461.2
2022-08-03T00:16:20.635Z,460.8
2022-08-03T00:18:04.337Z,461.8
2022-08-03T00:19:48.037Z,461.2
2022-08-03T00:21:31.736Z,459.9
2022-08-03T00:23:15.443Z,456.7
2022-08-03T00:24:59.149Z,454.4
2022-08-03T00:26:42.853Z,456
2022-08-03T00:28:26.845Z,453.3
2022-08-03T00:30:10.251Z,453.6
2022-08-03T00:31:53.958Z,457.1
2022-08-03T00:33:37.657Z,459.1
2022-08-03T00:35:21.360Z,457.3
2022-08-03T00:37:05.089Z,457.5
2022-08-03T00:38:48.772Z,455.1
2022-08-03T00:40:32.485Z,453.2
2022-08-03T00:42:16.189Z,456.1
2022-08-03T00:43:59.897Z,455.9
2022-08-03T00:45:43.584Z,456.5
2022-08-03T00:47:27.306Z,459.9
2022-08-03T00:49:10.996Z,459.4
2022-08-03T00:50:54.709Z,455.5
2022-08-03T00:52:38.400Z,456.4
2022-08-03T00:54:22.114Z,458.7
2022-08-03T00:56:05.832Z,460
2022-08-03T00:57:49.533Z,463
2022-08-03T00:59:33.212Z,464
2022-08-03T01:01:16.927Z,460.4
2022-08-03T01:03:00.636Z,460.7
2022-08-03T01:04:44.343Z,461.5
2022-08-03T01:06:28.042Z,462.9
2022-08-03T01:08:11.814Z,465.1
2022-08-03T01:09:55.469Z,466.9
2022-08-03T01:11:39.155Z,466.1
2022-08-03T01:13:22.835Z,465.5
2022-08-03T01:15:06.577Z,464.6
2022-08-03T01:16:50.260Z,461.6
2022-08-03T01:18:33.966Z,460.3
2022-08-03T01:20:17.647Z,461.7
2022-08-03T01:22:01.374Z,464.4
2022-08-03T01:23:45.129Z,464
2022-08-03T01:25:28.760Z,463.2
2022-08-03T01:27:12.451Z,464.8
2022-08-03T01:28:56.169Z,464.6
2022-08-03T01:30:39.873Z,464.5
2022-08-03T01:32:23.587Z,464.9
2022-08-03T01:34:07.252Z,464
2022-08-03T01:35:50.974Z,462.7
2022-08-03T01:37:34.669Z,461.7
2022-08-03T01:39:18.388Z,460.4
2022-08-03T01:41:02.080Z,461.2
2022-08-03T01:42:45.786Z,459.9
2022-08-03T01:44:29.494Z,456.9
2022-08-03T01:46:13.191Z,457.6
2022-08-03T01:47:56.889Z,459.1
2022-08-03T01:49:40.590Z,460.1
2022-08-03T01:51:24.286Z,462.5
2022-08-03T01:53:07.987Z,464.7
2022-08-03T01:54:51.694Z,465.5
2022-08-03T01:56:35.395Z,463.7
2022-08-03T01:58:19.114Z,459.9
2022-08-03T02:00:02.808Z,458.4
2022-08-03T02:01:46.503Z,459.8
2022-08-03T02:03:30.192Z,461.5
2022-08-03T02:05:13.897Z,461.5
2022-08-03T02:06:57.609Z,463.5
2022-08-03T02:08:41.311Z,462.5
2022-08-03T02:10:25.003Z,463.1
2022-08-03T02:12:08.719Z,464.2
2022-08-03T02:13:52.409Z,463.2
2022-08-03T02:15:36.113Z,462.7
2022-08-03T02:17:19.826Z,460.9
2022-08-03T02:19:03.525Z,461.8
2022-08-03T02:20:47.229Z,461.8
2022-08-03T02:22:30.925Z,459.8
2022-08-03T02:24:14.616Z,459
2022-08-03T02:25:58.338Z,459.9
2022-08-03T02:27:42.029Z,458
2022-08-03T02:29:25.718Z,457.7
2022-08-03T02:31:09.422Z,459.5
2022-08-03T02:32:53.140Z,460.3
2022-08-03T02:34:36.845Z,459.9
2022-08-03T02:36:20.561Z,460.4
2022-08-03T02:38:04.235Z,461.9
2022-08-03T02:39:47.955Z,464.2
2022-08-03T02:41:31.647Z,465.3
2022-08-03T02:43:15.367Z,464.3
2022-08-03T02:44:59.048Z,463.9
2022-08-03T02:46:42.758Z,464.6
2022-08-03T02:48:26.457Z,469.2
2022-08-03T02:50:10.184Z,468.5
2022-08-03T02:51:53.872Z,465.8
2022-08-03T02:53:37.594Z,466.5
2022-08-03T02:55:21.278Z,466.7
2022-08-03T02:57:04.985Z,466
2022-08-03T02:58:48.693Z,464
2022-08-03T03:00:32.388Z,464.7
2022-08-03T03:02:16.087Z,468
2022-08-03T03:03:59.801Z,472.5
2022-08-03T03:05:43.496Z,472.1
2022-08-03T03:07:27.215Z,471.6
2022-08-03T03:09:10.901Z,471.9
2022-08-03T03:10:54.597Z,473.8
2022-08-03T03:12:38.305Z,474.5
2022-08-03T03:14:22.012Z,476.2
2022-08-03T03:16:05.723Z,476.3
2022-08-03T03:17:49.413Z,477
2022-08-03T03:19:33.114Z,478
2022-08-03T03:21:16.821Z,479.2
2022-08-03T03:23:00.536Z,480.2
2022-08-03T03:24:44.297Z,482.3
2022-08-03T03:26:27.931Z,480.3
2022-08-03T03:28:11.637Z,481.4
2022-08-03T03:29:55.335Z,479.3
2022-08-03T03:31:39.030Z,480.7
2022-08-03T03:33:22.734Z,480.3
2022-08-03T03:35:06.467Z,481.5
2022-08-03T03:36:50.176Z,482.2
2022-08-03T03:38:33.840Z,480.7
2022-08-03T03:40:17.568Z,479.2
2022-08-03T03:42:01.249Z,475.2
2022-08-03T03:43:44.951Z,472.1
2022-08-03T03:45:28.654Z,473.2
2022-08-03T03:47:12.352Z,473.3
2022-08-03T03:48:56.056Z,472
2022-08-03T03:50:39.765Z,471.7
2022-08-03T03:52:23.463Z,470
2022-08-03T03:54:07.163Z,467.4
2022-08-03T03:55:50.873Z,468.9
2022-08-03T03:57:34.586Z,471.2
2022-08-03T03:59:18.282Z,469.6
2022-08-03T04:01:01.983Z,469
2022-08-03T04:02:45.692Z,467.8
2022-08-03T04:04:29.389Z,469.5
2022-08-03T04:06:13.079Z,473.1
2022-08-03T04:07:56.775Z,473.1
2022-08-03T04:09:40.501Z,468.8
2022-08-03T04:11:24.198Z,467.9
2022-08-03T04:13:07.886Z,470.3
2022-08-03T04:14:51.596Z,467.7
2022-08-03T04:16:35.300Z,467.7
2022-08-03T04:18:18.997Z,467.5
2022-08-03T04:20:02.703Z,467.2
2022-08-03T04:21:46.388Z,467.1
2022-08-03T04:23:30.113Z,462.9
2022-08-03T04:25:13.816Z,461
2022-08-03T04:26:57.500Z,463.7
2022-08-03T04:28:41.208Z,466.7
2022-08-03T04:30:24.932Z,469.8
2022-08-03T04:32:08.621Z,473.5
2022-08-03T04:33:52.315Z,473.8
2022-08-03T04:35:36.024Z,475.7
2022-08-03T04:37:19.713Z,475
2022-08-03T04:39:03.428Z,477.4
2022-08-03T04:40:47.111Z,476.7
2022-08-03T04:42:30.821Z,474.4
2022-08-03T04:44:14.506Z,476.6
2022-08-03T04:45:58.229Z,478
2022-08-03T04:47:41.916Z,477.4
2022-08-03T04:49:25.604Z,476.3
2022-08-03T04:51:09.325Z,474.8
2022-08-03T04:52:53.015Z,474.3
2022-08-03T04:54:36.711Z,474.1
2022-08-03T04:56:20.429Z,472.3
2022-08-03T04:58:04.138Z,472.1
2022-08-03T04:59:47.840Z,471.9
2022-08-03T05:01:31.524Z,471.8
2022-08-03T05:03:15.239Z,473.9
2022-08-03T05:04:58.917Z,472.7
2022-08-03T05:06:42.647Z,473
2022-08-03T05:08:26.322Z,472.6
2022-08-03T05:10:10.038Z,471.6
2022-08-03T05:11:53.733Z,468.8
2022-08-03T05:13:37.448Z,467.8
2022-08-03T05:15:21.150Z,467.4
2022-08-03T05:17:04.842Z,464.3
2022-08-03T05:18:48.555Z,461.7
2022-08-03T05:20:32.260Z,460.4
2022-08-03T05:22:15.943Z,460.3
2022-08-03T05:23:59.654Z,460.2
2022-08-03T05:25:43.352Z,462.8
2022-08-03T05:27:27.065Z,464.5
2022-08-03T05:29:10.750Z,467
2022-08-03T05:30:54.460Z,467.9
2022-08-03T05:32:38.171Z,466.4
2022-08-03T05:34:21.862Z,467.8
2022-08-03T05:36:05.554Z,468.2
2022-08-03T05:37:49.268Z,467
2022-08-03T05:39:32.983Z,465.3
2022-08-03T05:41:16.680Z,467
2022-08-03T05:44:44.069Z,465
2022-08-03T05:46:27.773Z,466.2
2022-08-03T05:48:11.479Z,468.8
2022-08-03T05:49:55.174Z,468.2
2022-08-03T05:51:38.865Z,464.8
2022-08-03T05:53:22.575Z,466.4
2022-08-03T05:55:06.287Z,463.5
2022-08-03T05:56:49.982Z,461.1
2022-08-03T05:58:33.677Z,461.2
2022-08-03T06:00:17.390Z,464.1
2022-08-03T06:02:01.111Z,464.3
2022-08-03T06:03:44.768Z,463.8
2022-08-03T06:05:28.476Z,463.8
2022-08-03T06:07:12.178Z,466.7
2022-08-03T06:08:55.883Z,465.6
2022-08-03T06:10:39.575Z,464.7
2022-08-03T06:12:23.281Z,463.1
2022-08-03T06:14:06.985Z,460.6
2022-08-03T06:15:50.704Z,459
2022-08-03T06:17:34.379Z,460.3
2022-08-03T06:19:18.078Z,461.6
2022-08-03T06:21:01.844Z,462.3
2022-08-03T06:22:45.493Z,461.8
2022-08-03T06:24:29.186Z,461.8
2022-08-03T06:26:12.886Z,463.7
2022-08-03T06:27:56.591Z,463.4
2022-08-03T06:29:40.292Z,462.6
2022-08-03T06:31:24.019Z,464.5
2022-08-03T06:33:07.688Z,464.2
2022-08-03T06:34:51.421Z,459.1
2022-08-03T06:36:35.108Z,458.3
2022-08-03T06:38:18.790Z,458
2022-08-03T06:40:02.525Z,458.9
2022-08-03T06:41:46.199Z,458.4
2022-08-03T06:43:29.923Z,459.2
2022-08-03T06:45:13.608Z,457.6
2022-08-03T06:46:57.316Z,459.5
2022-08-03T06:48:41.016Z,460.2
2022-08-03T06:50:24.718Z,459.7
2022-08-03T06:52:08.427Z,458.9
2022-08-03T06:53:52.105Z,459.6
2022-08-03T06:55:35.814Z,459.3
2022-08-03T06:57:19.522Z,457.8
2022-08-03T06:59:03.231Z,457
2022-08-03T07:00:46.897Z,453.3
2022-08-03T07:02:30.606Z,449.5
2022-08-03T07:04:14.315Z,446.2
2022-08-03T07:05:58.009Z,448.4
2022-08-03T07:07:41.725Z,450.8
2022-08-03T07:09:25.413Z,448
2022-08-03T07:11:09.109Z,448
2022-08-03T07:12:52.865Z,448.5
2022-08-03T07:14:36.505Z,449.5
2022-08-03T07:16:20.231Z,450.3
2022-08-03T07:18:03.939Z,449.6
2022-08-03T07:19:47.614Z,450.5
2022-08-03T07:21:31.323Z,450.3
2022-08-03T07:23:15.044Z,450.7
2022-08-03T07:24:58.752Z,450.7
2022-08-03T07:26:42.439Z,447
2022-08-03T07:28:26.134Z,449.9
2022-08-03T07:30:09.843Z,447.5
2022-08-03T07:31:53.540Z,446.2
2022-08-03T07:33:37.248Z,445.7
2022-08-03T07:35:20.957Z,447.7
2022-08-03T07:37:04.719Z,447
2022-08-03T07:38:48.367Z,449.1
2022-08-03T07:40:32.066Z,449.8
2022-08-03T07:42:15.777Z,452.7
2022-08-03T07:43:59.474Z,449.9
2022-08-03T07:45:43.171Z,448.9
2022-08-03T07:47:26.891Z,447.3
2022-08-03T07:49:10.565Z,447.6
2022-08-03T07:50:54.281Z,447.6
2022-08-03T07:52:37.986Z,452.7
2022-08-03T07:54:21.671Z,452.7
2022-08-03T07:56:05.390Z,454.2
2022-08-03T07:57:49.116Z,458.9
2022-08-03T07:59:32.780Z,466.3
2022-08-03T08:01:16.496Z,472.6
2022-08-03T08:03:00.191Z,480.3
2022-08-03T08:04:43.899Z,482.7
2022-08-03T08:06:27.584Z,482.8
2022-08-03T08:08:11.315Z,482
2022-08-03T08:09:55.020Z,482.1
2022-08-03T08:11:38.707Z,484.7
2022-08-03T08:13:22.399Z,485.9
2022-08-03T08:15:06.114Z,488.9
2022-08-03T08:16:49.816Z,490.7
2022-08-03T08:18:33.510Z,497.3
2022-08-03T08:20:17.216Z,496.6
2022-08-03T08:22:00.926Z,492.5
2022-08-03T08:23:44.639Z,490.5
2022-08-03T08:25:28.319Z,488.4
2022-08-03T08:27:12.025Z,490.8
2022-08-03T08:28:55.755Z,493.9
2022-08-03T08:30:39.442Z,494.2
2022-08-03T08:32:23.131Z,494.7
2022-08-03T08:34:06.846Z,496.2
2022-08-03T08:35:50.540Z,496
2022-08-03T08:37:34.258Z,496
2022-08-03T08:39:17.952Z,495.9
2022-08-03T08:41:01.645Z,495.1
2022-08-03T08:42:45.355Z,496.7
2022-08-03T08:44:29.045Z,498.4
2022-08-03T08:46:12.750Z,500.6
2022-08-03T08:47:56.455Z,498.2
2022-08-03T08:49:40.163Z,496.2
2022-08-03T08:51:23.862Z,494
2022-08-03T08:53:07.560Z,494.2
2022-08-03T08:54:51.281Z,494.2
2022-08-03T08:56:34.984Z,491.9
2022-08-03T08:58:18.684Z,490.5
2022-08-03T09:00:02.372Z,494.8
2022-08-03T09:01:46.078Z,498.8
2022-08-03T09:03:29.785Z,504.5
2022-08-03T09:05:13.464Z,514.3
2022-08-03T09:06:57.169Z,523.3
2022-08-03T09:08:40.913Z,528.6
2022-08-03T09:10:24.578Z,533.4
2022-08-03T09:12:08.290Z,536.5
2022-08-03T09:13:51.977Z,537.8
2022-08-03T09:15:35.692Z,536.3
2022-08-03T09:17:19.384Z,535.5
2022-08-03T09:19:03.084Z,539.2
2022-08-03T09:20:46.801Z,541.4
2022-08-03T09:22:30.505Z,542.1
2022-08-03T09:24:14.186Z,541.5
2022-08-03T09:25:57.891Z,540.9
2022-08-03T09:27:41.589Z,542
2022-08-03T09:29:25.290Z,540.8
2022-08-03T09:31:09.001Z,539.2
2022-08-03T09:32:52.686Z,541.7
2022-08-03T09:34:36.399Z,539.2
2022-08-03T09:36:20.092Z,543.1
2022-08-03T09:38:03.804Z,559.1
2022-08-03T09:39:47.500Z,570
2022-08-03T09:41:31.210Z,578.6
2022-08-03T09:43:14.915Z,582.8
2022-08-03T09:44:58.601Z,583.4
2022-08-03T09:46:42.310Z,586.2
2022-08-03T09:48:26.019Z,587.5
2022-08-03T09:50:09.714Z,589
2022-08-03T09:51:53.427Z,594.1
2022-08-03T09:53:37.108Z,600.3
2022-08-03T09:55:20.853Z,608.8
2022-08-03T09:57:04.563Z,612.6
2022-08-03T09:58:48.210Z,614.8
2022-08-03T10:00:31.929Z,612.6
2022-08-03T10:02:15.617Z,603.8
2022-08-03T10:03:59.321Z,592.3
2022-08-03T10:05:43.012Z,580.6
2022-08-03T10:07:26.745Z,571.5
2022-08-03T10:09:10.417Z,565.3
2022-08-03T10:10:54.139Z,562.2
2022-08-03T10:12:37.835Z,558.1
2022-08-03T10:14:21.535Z,552
2022-08-03T10:16:05.239Z,546.1
2022-08-03T10:17:48.947Z,541.3
2022-08-03T10:19:32.641Z,537.6
2022-08-03T10:21:16.339Z,535.5
2022-08-03T10:23:00.057Z,531
2022-08-03T10:24:43.746Z,528.5
2022-08-03T10:26:27.454Z,527.4
2022-08-03T10:28:11.133Z,529.8
2022-08-03T10:29:54.839Z,533.4
2022-08-03T10:31:38.537Z,534.9
2022-08-03T10:33:22.272Z,533.4
2022-08-03T10:35:05.944Z,535.5
2022-08-03T10:36:49.659Z,542.6
2022-08-03T10:38:33.359Z,544.2
2022-08-03T10:40:17.051Z,550.4
2022-08-03T10:42:00.757Z,554.3
2022-08-03T10:43:44.477Z,559.3
2022-08-03T10:45:28.154Z,564.1
2022-08-03T10:47:11.868Z,565.4
2022-08-03T10:48:55.565Z,565.9
2022-08-03T10:50:39.270Z,566.9
2022-08-03T10:52:23.066Z,565.2
2022-08-03T10:54:06.679Z,560.5
2022-08-03T10:55:50.374Z,558
2022-08-03T10:57:34.085Z,560.4
2022-08-03T10:59:17.781Z,562.7
2022-08-03T11:01:01.478Z,565.1
2022-08-03T11:02:45.191Z,567.7
2022-08-03T11:04:28.900Z,570.7
2022-08-03T11:06:12.271Z,573.5
2022-08-03T11:07:55.981Z,576.1
2022-08-03T11:09:39.687Z,577.7
2022-08-03T11:11:23.442Z,579.5
2022-08-03T11:13:07.082Z,577.8
2022-08-03T11:14:50.787Z,573.8
2022-08-03T11:16:34.493Z,572.5
2022-08-03T11:18:18.190Z,573.8
2022-08-03T11:20:01.884Z,575.7
2022-08-03T11:21:45.580Z,573.1
2022-08-03T11:23:29.284Z,571.9
2022-08-03T11:25:12.994Z,569.1
2022-08-03T11:26:56.695Z,566.5
2022-08-03T11:28:40.408Z,566.1
2022-08-03T11:30:24.115Z,562.4
2022-08-03T11:32:07.789Z,561.9
2022-08-03T11:33:51.499Z,563.7
2022-08-03T11:35:35.203Z,569.6
2022-08-03T11:37:18.960Z,577.6
2022-08-03T11:39:02.600Z,579.7
2022-08-03T11:40:46.300Z,582.7
2022-08-03T11:42:30.015Z,583.5
2022-08-03T11:44:13.721Z,581.6
2022-08-03T11:45:57.405Z,582.4
2022-08-03T11:47:41.130Z,581.5
2022-08-03T11:49:24.825Z,581.1
2022-08-03T11:51:08.513Z,577.8
2022-08-03T11:52:52.213Z,579.4
2022-08-03T11:54:35.913Z,577.8
2022-08-03T11:56:19.613Z,572.4
2022-08-03T11:58:03.305Z,567.6
2022-08-03T11:59:47.037Z,568.2
2022-08-03T12:01:30.717Z,573
2022-08-03T12:03:14.438Z,577.1
2022-08-03T12:04:58.125Z,577.7
2022-08-03T12:06:41.843Z,577.8
2022-08-03T12:08:25.555Z,576.6
2022-08-03T12:10:09.231Z,574.8
2022-08-03T12:11:52.938Z,581
2022-08-03T12:13:36.639Z,581.7
2022-08-03T12:15:20.349Z,574.7
2022-08-03T12:17:04.032Z,574.9
2022-08-03T12:18:47.738Z,576.7
2022-08-03T12:20:31.447Z,576.4
2022-08-03T12:22:15.168Z,576.2
2022-08-03T12:23:58.842Z,574.4
2022-08-03T12:25:42.529Z,572.3
2022-08-03T12:27:26.240Z,570.9
2022-08-03T12:29:09.947Z,571.2
2022-08-03T12:30:53.640Z,569.6
2022-08-03T12:32:37.351Z,564.7
2022-08-03T12:34:21.045Z,561.3
2022-08-03T12:36:04.760Z,559.6
2022-08-03T12:37:48.466Z,558.4
2022-08-03T12:39:32.157Z,554.2
2022-08-03T12:41:15.873Z,546.3
2022-08-03T12:42:59.546Z,542.3
2022-08-03T12:44:43.264Z,540.3
2022-08-03T12:46:26.970Z,542.9
2022-08-03T12:48:10.671Z,543.7
2022-08-03T12:49:54.396Z,541.8
2022-08-03T12:51:38.066Z,541.8
2022-08-03T12:53:21.776Z,541.7
2022-08-03T12:55:05.469Z,540.5
2022-08-03T12:56:49.163Z,528.4
2022-08-03T12:58:32.915Z,524.7
2022-08-03T13:00:16.578Z,522.5
2022-08-03T13:02:00.279Z,520.8
2022-08-03T13:03:43.976Z,517.9
2022-08-03T13:05:27.738Z,515.5
2022-08-03T13:07:11.400Z,513
2022-08-03T13:08:55.084Z,512.1
2022-08-03T13:10:38.778Z,510
2022-08-03T13:12:22.495Z,508.8
2022-08-03T13:14:06.202Z,505.2
2022-08-03T13:15:49.884Z,503
2022-08-03T13:17:33.621Z,502.1
2022-08-03T13:19:17.291Z,499.8
2022-08-03T13:21:00.990Z,499.5
2022-08-03T13:22:44.683Z,505.3
2022-08-03T13:24:28.416Z,513.6
2022-08-03T13:26:12.101Z,529.7
2022-08-03T13:27:55.799Z,547.3
2022-08-03T13:29:39.512Z,558.3
2022-08-03T13:31:23.200Z,562.8
2022-08-03T13:33:06.931Z,568.4
2022-08-03T13:34:50.612Z,580.6
2022-08-03T13:36:34.316Z,595.1
2022-08-03T13:38:18.028Z,606.1
2022-08-03T13:40:01.758Z,617.7
2022-08-03T13:41:45.427Z,624.6
2022-08-03T13:43:29.110Z,629.3
2022-08-03T13:45:12.832Z,632.4
2022-08-03T13:46:56.520Z,636.8
2022-08-03T13:48:40.233Z,639.6
2022-08-03T13:50:23.930Z,646
2022-08-03T13:52:07.658Z,653.3
2022-08-03T13:53:51.341Z,661
2022-08-03T13:55:35.041Z,668.4
2022-08-03T13:57:18.743Z,675.1
2022-08-03T13:59:02.465Z,683.9
2022-08-03T14:00:46.150Z,689.4
2022-08-03T14:02:29.837Z,692.3
2022-08-03T14:04:13.542Z,697.2
2022-08-03T14:05:57.253Z,704.1
2022-08-03T14:07:40.968Z,708.4
2022-08-03T14:09:24.658Z,715.9
2022-08-03T14:11:08.358Z,723.4
2022-08-03T14:12:52.053Z,731
2022-08-03T14:14:35.772Z,733.8
2022-08-03T14:16:19.446Z,726.5
2022-08-03T14:18:03.157Z,718.6
2022-08-03T14:19:46.851Z,710.9
2022-08-03T14:21:30.577Z,708.7
2022-08-03T14:23:14.261Z,705.8
2022-08-03T14:24:57.962Z,707.5
2022-08-03T14:26:41.671Z,705.9
2022-08-03T14:28:25.364Z,696.6
2022-08-03T14:30:09.092Z,691.6
2022-08-03T14:31:52.779Z,686.5
2022-08-03T14:33:36.477Z,673.5
2022-08-03T14:35:20.187Z,629.3
2022-08-03T14:37:03.889Z,606.6
2022-08-03T14:38:47.595Z,599.2
2022-08-03T14:40:31.286Z,605.8
2022-08-03T14:42:14.997Z,606
2022-08-03T14:43:58.675Z,601.3
2022-08-03T14:45:42.391Z,603.5
2022-08-03T14:47:26.094Z,604.5
2022-08-03T14:49:09.797Z,601
2022-08-03T14:50:53.522Z,594.3
2022-08-03T14:52:37.201Z,587.4
2022-08-03T15:08:10.519Z,551.3
2022-08-03T15:09:54.217Z,552.1
2022-08-03T15:11:37.921Z,551.9
2022-08-03T15:13:21.629Z,556
2022-08-03T15:15:05.356Z,557.6
2022-08-03T15:16:49.029Z,559.3
2022-08-03T15:18:32.739Z,557.7
2022-08-03T15:20:16.444Z,558.8
2022-08-03T15:22:00.140Z,556.8
2022-08-03T15:23:43.846Z,558.8
2022-08-03T15:25:27.554Z,557.5
2022-08-03T15:27:11.255Z,554.9
2022-08-03T15:28:54.954Z,551.5
2022-08-03T15:30:38.644Z,551.8
2022-08-03T15:32:22.345Z,551.4
2022-08-03T15:34:06.035Z,551.8
2022-08-03T15:35:49.740Z,551.4
2022-08-03T15:37:33.443Z,553.8
2022-08-03T15:39:17.143Z,560.8
2022-08-03T15:41:00.892Z,571.2
2022-08-03T15:42:44.565Z,583.5
2022-08-03T15:44:28.240Z,596.3
2022-08-03T15:46:11.958Z,596.9
2022-08-03T15:47:55.666Z,600.5
2022-08-03T15:49:39.349Z,607.5
2022-08-03T15:51:23.074Z,611.2
2022-08-03T15:53:06.774Z,616.1
2022-08-03T15:54:50.483Z,623.8
2022-08-03T15:56:34.171Z,627.2
2022-08-03T15:58:17.870Z,633.1
2022-08-03T16:00:01.572Z,634.7
2022-08-03T16:01:45.300Z,633.7
2022-08-03T16:03:28.973Z,632.7
2022-08-03T16:05:12.671Z,630.4
2022-08-03T16:06:56.380Z,625.9
2022-08-03T16:08:40.102Z,623.9
2022-08-03T16:10:23.794Z,625
2022-08-03T16:12:07.496Z,628.6
2022-08-03T16:13:51.200Z,629.7
2022-08-03T16:15:34.915Z,633.4
2022-08-03T16:17:18.613Z,633.6
2022-08-03T16:19:02.288Z,631.5
2022-08-03T16:20:45.991Z,632.5
2022-08-03T16:22:29.706Z,633.3
2022-08-03T16:24:13.414Z,636.1
2022-08-03T16:25:57.103Z,637.3
2022-08-03T16:27:40.821Z,636.4
2022-08-03T16:29:24.527Z,636.3
2022-08-03T16:31:08.199Z,637.5
2022-08-03T16:32:51.933Z,641.2
2022-08-03T16:34:35.625Z,641.9
2022-08-03T16:36:19.336Z,645
2022-08-03T16:38:03.020Z,648
2022-08-03T16:39:46.708Z,651.9
2022-08-03T16:41:30.412Z,655.2
2022-08-03T16:43:14.120Z,657.1
2022-08-03T16:44:57.838Z,657.6
2022-08-03T16:46:41.541Z,656.9
2022-08-03T16:48:25.228Z,658.8
2022-08-03T16:50:08.924Z,660.6
2022-08-03T16:51:52.620Z,661
2022-08-03T16:53:36.346Z,663.9
2022-08-03T16:55:20.043Z,665.1
2022-08-03T16:57:03.730Z,663.1
2022-08-03T16:58:47.463Z,666.1
2022-08-03T17:00:31.127Z,672.4
2022-08-03T17:02:14.852Z,676.1
2022-08-03T17:03:58.574Z,679.1
2022-08-03T17:05:42.253Z,673.7
2022-08-03T17:07:25.951Z,674.5
2022-08-03T17:09:09.673Z,673.1
2022-08-03T17:10:53.351Z,665.1
2022-08-03T17:12:37.074Z,656.4
2022-08-03T17:14:20.788Z,657.1
2022-08-03T17:16:04.466Z,652.5
2022-08-03T17:17:48.148Z,641.2
2022-08-03T17:19:31.853Z,633.1
2022-08-03T17:21:15.553Z,630.1
2022-08-03T17:22:59.290Z,622.2
2022-08-03T17:24:42.985Z,618.5
2022-08-03T17:26:26.672Z,616.3
2022-08-03T17:28:10.361Z,614.7
2022-08-03T17:29:54.070Z,612.6
2022-08-03T17:31:37.769Z,610.4
2022-08-03T17:33:21.461Z,605.3
2022-08-03T17:35:05.153Z,599.7
2022-08-03T17:36:48.863Z,593.7
2022-08-03T17:38:32.570Z,590.1
2022-08-03T17:40:16.271Z,580.5
2022-08-03T17:41:59.972Z,570
2022-08-03T17:43:43.680Z,558.8
2022-08-03T17:45:27.392Z,549.1
2022-08-03T17:47:11.117Z,544
2022-08-03T17:48:54.784Z,544
2022-08-03T17:50:38.484Z,546.8
2022-08-03T17:52:22.188Z,548
2022-08-03T17:54:05.880Z,544.2
2022-08-03T17:55:49.588Z,537.6
2022-08-03T17:57:33.316Z,532.2
2022-08-03T17:59:17.001Z,525.9
2022-08-03T18:01:00.699Z,520.8
2022-08-03T18:02:44.396Z,515.6
2022-08-03T18:04:28.115Z,512.6
2022-08-03T18:06:11.853Z,509.1
2022-08-03T18:07:55.502Z,504.6
2022-08-03T18:09:39.210Z,500.8
2022-08-03T18:11:22.912Z,499
2022-08-03T18:13:06.621Z,495.1
2022-08-03T18:14:50.314Z,490.7
2022-08-03T18:16:34.024Z,491.2
2022-08-03T18:18:17.734Z,501
2022-08-03T18:20:01.426Z,511.7
2022-08-03T18:21:45.135Z,518.1
2022-08-03T18:23:28.858Z,518.2
2022-08-03T18:25:12.570Z,518.8
2022-08-03T18:26:56.256Z,523.9
2022-08-03T18:28:39.950Z,527.7
2022-08-03T18:30:23.667Z,531.2
2022-08-03T18:32:07.357Z,535
2022-08-03T18:33:51.029Z,537.4
2022-08-03T18:35:34.755Z,539.2
2022-08-03T18:37:18.448Z,542.9
2022-08-03T18:39:02.155Z,541.7
2022-08-03T18:40:45.830Z,544.2
2022-08-03T18:42:29.548Z,546.8
2022-08-03T18:44:13.759Z,549.9
2022-08-03T18:45:56.964Z,548
2022-08-03T18:47:40.675Z,548.8
2022-08-03T18:49:24.367Z,549.3
2022-08-03T18:51:08.057Z,551.4
2022-08-03T18:52:51.755Z,554.6
2022-08-03T18:54:35.463Z,561
2022-08-03T18:56:19.157Z,564.5
2022-08-03T18:58:02.892Z,567.3
2022-08-03T18:59:46.565Z,568.4
2022-08-03T19:01:30.282Z,572.2
2022-08-03T19:03:13.974Z,575.8
2022-08-03T19:04:57.685Z,576.4
2022-08-03T19:06:41.377Z,580.2
2022-08-03T19:08:25.068Z,578.9
2022-08-03T19:10:08.821Z,581.6
2022-08-03T19:11:52.488Z,584.3
2022-08-03T19:13:36.195Z,581.5
2022-08-03T19:15:19.872Z,580.7
2022-08-03T19:17:03.611Z,582.6
2022-08-03T19:18:47.301Z,583.9
2022-08-03T19:20:31.015Z,587.3
2022-08-03T19:22:14.700Z,587.7
2022-08-03T19:23:58.448Z,588.4
2022-08-03T19:25:42.139Z,590.4
2022-08-03T19:27:25.830Z,590.7
2022-08-03T19:29:09.507Z,589.7
2022-08-03T19:30:53.223Z,589.6
2022-08-03T19:32:36.943Z,587.3
2022-08-03T19:34:20.609Z,584.3
2022-08-03T19:36:04.331Z,584.2
2022-08-03T19:37:48.054Z,539.1
2022-08-03T19:39:31.732Z,462.1
2022-08-03T19:41:15.466Z,454.1
2022-08-03T19:42:59.175Z,454.5
2022-08-03T19:44:42.855Z,449.3
2022-08-03T19:46:26.552Z,445.6
2022-08-03T19:48:10.226Z,443.2
2022-08-03T19:49:53.934Z,446.4
2022-08-03T19:51:37.664Z,448.3
2022-08-03T19:53:21.363Z,447.8
2022-08-03T19:55:05.087Z,444.6
2022-08-03T19:56:48.779Z,443.8
2022-08-03T19:58:32.453Z,444.3
2022-08-03T20:00:16.174Z,444.9
2022-08-03T20:03:43.541Z,443.9
2022-08-03T20:05:27.271Z,443.5
2022-08-03T20:07:10.941Z,441.9
2022-08-03T20:08:54.658Z,442
2022-08-03T20:10:38.381Z,444.1
2022-08-03T20:12:22.115Z,444.5
2022-08-03T20:14:05.760Z,448.3
2022-08-03T20:15:49.532Z,446.5
2022-08-03T20:17:33.147Z,445.7
2022-08-03T20:19:16.864Z,447.9
2022-08-03T20:21:00.557Z,447.6
2022-08-03T20:22:44.260Z,444.4
2022-08-03T20:24:27.972Z,444.9
2022-08-03T20:26:11.668Z,450.1
2022-08-03T20:27:55.365Z,453.2
2022-08-03T20:29:39.073Z,454
2022-08-03T20:31:22.780Z,455.2
2022-08-03T20:33:06.469Z,456.2
2022-08-03T20:34:50.201Z,456.5
2022-08-03T20:36:33.898Z,456.6
2022-08-03T20:38:17.592Z,457.3
2022-08-03T20:40:01.346Z,460.6
2022-08-03T20:41:44.979Z,463.1
2022-08-03T20:43:28.714Z,465
2022-08-03T20:45:12.397Z,465.9
2022-08-03T20:46:56.119Z,466.5
2022-08-03T20:48:39.839Z,468.1
2022-08-03T20:50:23.475Z,469.1
2022-08-03T20:52:07.182Z,470.8
2022-08-03T20:53:50.904Z,469.5
2022-08-03T20:55:34.581Z,468.3
2022-08-03T20:57:18.283Z,471.8
2022-08-03T20:59:02.026Z,469.8
2022-08-03T21:00:45.702Z,466.1
2022-08-03T21:02:29.406Z,466.4
2022-08-03T21:04:13.160Z,469.2
2022-08-03T21:05:56.841Z,463.9
2022-08-03T21:07:40.518Z,462.3
2022-08-03T21:09:24.239Z,463.3
2022-08-03T21:11:07.940Z,469.8
2022-08-03T21:12:51.618Z,469.6
2022-08-03T21:14:35.312Z,467.5
2022-08-03T21:16:19.001Z,466.9
2022-08-03T21:18:02.699Z,465.3
2022-08-03T21:19:46.412Z,465.7
2022-08-03T21:21:30.110Z,468.8
2022-08-03T21:23:14.049Z,469.8
2022-08-03T21:24:57.539Z,470.4
2022-08-03T21:26:41.211Z,472.3
2022-08-03T21:28:24.922Z,474.5
2022-08-03T21:30:08.642Z,478.5
2022-08-03T21:31:52.306Z,480.5
2022-08-03T21:33:36.013Z,483.7
2022-08-03T21:35:19.719Z,481.7
2022-08-03T21:37:03.400Z,477.3
2022-08-03T21:38:47.108Z,475.5
2022-08-03T21:40:30.824Z,473.4
2022-08-03T21:42:14.518Z,473.8
2022-08-03T21:43:58.219Z,473
2022-08-03T21:45:41.896Z,474.2
2022-08-03T21:47:25.589Z,475
2022-08-03T21:49:09.294Z,474.6
2022-08-03T21:50:52.997Z,475.1
2022-08-03T21:52:36.704Z,471.4
2022-08-03T21:54:20.406Z,469.8
2022-08-03T21:56:04.127Z,470.6
2022-08-03T21:57:47.806Z,469.4
2022-08-03T21:59:31.489Z,467.7
2022-08-03T22:01:15.201Z,469
2022-08-03T22:02:58.912Z,466.8
2022-08-03T22:04:42.616Z,466.6
2022-08-03T22:06:26.328Z,466.1
2022-08-03T22:08:10.058Z,464.4
2022-08-03T22:09:53.705Z,465
2022-08-03T22:11:37.424Z,468.6
2022-08-03T22:13:21.118Z,468.6
2022-08-03T22:15:04.811Z,465.7
2022-08-03T22:16:48.520Z,464
2022-08-03T22:18:32.202Z,464.1
2022-08-03T22:20:15.924Z,465.3
2022-08-03T22:21:59.615Z,465.9
2022-08-03T22:23:43.324Z,462.8
2022-08-03T22:25:27.020Z,462.3
2022-08-03T22:27:10.752Z,460.6
2022-08-03T22:28:54.415Z,459
2022-08-03T22:30:38.138Z,459
2022-08-03T22:32:21.822Z,462
2022-08-03T22:34:05.517Z,462.4
2022-08-03T22:35:49.224Z,462.1
2022-08-03T22:37:32.935Z,461.5
2022-08-03T22:39:16.635Z,460.8
2022-08-03T22:41:00.329Z,461.8